VEAZ weather

Tuirial Airfield
Aizawl, Mizoram, India

Public forecast

Using degrees Celsius for public forecast. Weather courtesy of forecast.io.

METAR (pilot weather report)

Report is more than 6 hours old.

Closest report is Lengpui Airport, 11.6 nm (21.5 km) WNW. Retrieved 2019/08/25 08:30 UTC (16 hours ago):

VELP 250830Z 17003KT 5000 HZ FEW018 SCT100 31/24 Q1003 NOSIG

TAF (pilot weather forecast)

Forecast is more than 6 hours old.

Closest forecast is Silchar Airport, 70.9 nm (131.3 km) N. Retrieved 2019/08/25 12:30 UTC (12 hours ago):

TAF VEKU 250930Z 2512/2524 VRB02KT 6000 SCT025 SCT100 TEMPO 2514/2518 SCT020 FEW025TCU/CB BKN100 TEMPO 2521/2524 4000 RABR SCT018 SCT025 BKN100